Fernando Martinez

Baş Scout - Atletico Venezuela
19 Ağu 2027
Perşembe
İşlem

Kişilik

Uyum (16) Hırs (8) Tartışma (7) Sadakat (13) Baskı (8) Profesyonellik (9) Sportmenlik (18) Mizaç (17)

Profil

Antrenörlük Tarzı Demokratik
Lisans Kıtasal B
Kararlılık 8
İnsan Yönetimi 10
Motivasyon 3
Disiplin 10
İş Memnuniyeti
100%
Yorgunluk
0%
Görev Baş Scout
Maaş 37.5K h/h
Sözleşme 14.03.2030

Performans

Davranış İyi
Antrenman Etkinliği
31%
Oyuncu Gelişimi
45%
Sakatlık Önleme
25%
Taktik Uygulama
20%

Son Olaylar

Oyuncu izleme toplantısına katıldı 7gün önce
Bir transfer hedefi önerdi 7gün önce
Oyuncu izleme toplantısına katıldı 14gün önce
Bir transfer hedefi önerdi 14gün önce
Oyuncu izleme toplantısına katıldı 21gün önce
Bir transfer hedefi önerdi 21gün önce
Oyuncu izleme toplantısına katıldı 28gün önce
Bir transfer hedefi önerdi 28gün önce

Şu Anda İzliyor

125
Oyuncu Kulüp Durum Yetenek Güven İzlendi Son Gözlem Son Oy
Naygers Flores Deportivo La Guaira Görüşülüyor 86 / 86 69% 1 01.06.2027 Onayla
Sergio Carrasco Cobresal Aktif 98 / 96 40% 1 01.06.2027 -
Sebastián Cocimano Nueva Chicago Aktif 108 / 110 40% 1 01.06.2027 -
Alexander Díaz Deportivo Riestra Aktif 114 / 116 40% 1 01.06.2027 -
Louis Appéré Cambridge United Aktif 93 / 101 40% 1 27.11.2026 -
Matty Stevens AFC Wimbledon Aktif 105 / 96 40% 1 27.11.2026 -
Lee Bonis Chesterfield Aktif 95 / 116 40% 2 26.11.2026 -
Jonás Luna Santa Clara Aktif 118 / 108 40% 1 26.11.2026 -
Edarlyn Reyes Arsenal Tula Aktif 120 / 120 40% 4 25.11.2026 -
Vyacheslav Grulev Nizhniy Novgorod Aktif 107 / 112 40% 3 25.11.2026 -
Anderson Gutiérrez Chelyabinsk Aktif 96 / 97 40% 1 25.11.2026 -
Nathan Ordaz Metalist Aktif 100 / 104 40% 1 24.11.2026 -
Sonny Perkins Leyton Orient Aktif 84 / 100 40% 1 24.11.2026 -
Alexis Domínguez Chacarita Juniors Aktif 106 / 108 40% 2 23.11.2026 -
Fabricio Rojas Gimnasia y Tiro Aktif 107 / 115 40% 6 23.11.2026 -
Lucio Castillo Colegiales Aktif 113 / 107 40% 2 21.11.2026 -
Breel Embolo Atlanta United FC Aktif 147 / 133 40% 5 21.11.2026 -
Marcos Cuenca Zaragoza Aktif 104 / 122 40% 4 20.11.2026 -
Isaac Matondo Koper Aktif 98 / 90 40% 1 20.11.2026 -
Sebastián Ybares Neftekhimik Aktif 92 / 98 40% 1 17.11.2026 -
Mauro Rodrigues Botev Plovdiv Aktif 107 / 97 40% 1 16.11.2026 -
Ekain Orobengoa Real Sociedad Aktif 94 / 91 40% 3 14.11.2026 -
Lucas Angelini Temperley Aktif 120 / 116 40% 1 14.11.2026 -
Gilson Benchimol Akron Aktif 117 / 113 40% 1 14.11.2026 -
Facundo Pons San Martín Aktif 121 / 109 40% 1 14.11.2026 Daha Fazla Bilgi
Alexandr Saplinov Volga Aktif 99 / 95 40% 1 10.11.2026 -
Johnly Yfeko Exeter City Aktif 102 / 103 40% 1 10.11.2026 -
Job Ochieng Real Sociedad Aktif 115 / 94 40% 3 08.11.2026 -
Eduardo Armenta Ufa Aktif 92 / 91 40% 1 07.11.2026 -
Kenan Dervišagić Floriana Aktif 108 / 103 40% 2 06.11.2026 -
Axel Pérez NK Domzale Aktif 96 / 114 40% 1 06.11.2026 -
Fabricio Oviedo Rosario Central Aktif 100 / 117 40% 1 04.11.2026 -
Stephen Humphrys Bradford City Aktif 102 / 96 40% 2 03.11.2026 -
Sergio Riffo NK Zavrc Aktif 104 / 103 40% 3 01.11.2026 -
Kamran Aliev SKA Khabarovsk Aktif 111 / 106 40% 1 30.10.2026 -
Jhon Flor Sokol Aktif 78 / 105 40% 1 30.10.2026 -
Rodrigo González Aldosivi Aktif 125 / 120 40% 1 30.10.2026 -
Juan Manuel Jorge Defensor Sporting Aktif 109 / 109 40% 1 30.10.2026 -
Julián Palacios Unión de Santa Fe Aktif 112 / 107 40% 2 29.10.2026 -
Esteven Salguero Patriotas Aktif 105 / 99 40% 2 28.10.2026 -
Camilo Rey Domenech Boca Juniors Aktif 113 / 131 40% 1 28.10.2026 -
Marcus Browne AFC Wimbledon Aktif 112 / 89 40% 2 27.10.2026 -
Mario García Racing Santander Aktif 114 / 128 40% 2 27.10.2026 -
Lautaro Ríos Banfield Aktif 110 / 119 40% 1 27.10.2026 -
Luka Kurtovic NK Domzale Aktif 121 / 113 40% 4 26.10.2026 -
Yeangel Montero Naxxar Lions Aktif 101 / 118 40% 1 26.10.2026 -
Aldahir Pérez Tijuana Aktif 102 / 122 40% 1 25.10.2026 -
Mauro Smarra Deportivo Riestra Aktif 106 / 108 40% 1 24.10.2026 -
Nahuel Gallardo San Martín Aktif 114 / 105 40% 1 24.10.2026 -
Milton Castagna Neftekhimik Aktif 104 / 91 40% 1 23.10.2026 -
Sam Nombe Milton Keynes Dons Aktif 119 / 99 40% 2 21.10.2026 -
Gaspar Duarte Rosario Central Aktif 114 / 115 40% 2 20.10.2026 -
Robert Murić Floriana Aktif 101 / 117 40% 1 20.10.2026 -
Diego Valencia Universidad Catolica Aktif 110 / 105 40% 3 19.10.2026 -
Martin Sekulić Ural Aktif 116 / 109 40% 3 19.10.2026 -
Milan Tučić ND Gorica Aktif 95 / 107 40% 1 19.10.2026 -
Gabriel Jesus Barcelona Aktif 165 / 162 40% 6 18.10.2026 -
Diego Méndez Tacuarembo Aktif 85 / 87 40% 5 17.10.2026 -
Ángel Stringa Deportivo Riestra Aktif 98 / 109 40% 4 17.10.2026 -
Facundo Pimienta Atlético Tucumán Aktif 89 / 101 40% 1 15.10.2026 -
Joaquín Rivero Instituto Aktif 87 / 92 40% 3 13.10.2026 -
Thiago Ponce Rosario Central Aktif 97 / 101 40% 1 12.10.2026 -
Ignacio Sabatini Gimnasia y Esgrima Aktif 100 / 109 40% 1 10.10.2026 -
Gorka Gorosabel Real Sociedad Aktif 99 / 130 40% 1 09.10.2026 -
Vladimir Khubulov Dinamo Makhachkala Aktif 104 / 123 40% 1 09.10.2026 -
Manprit Sarkaria Austria Wien Aktif 126 / 129 40% 1 08.10.2026 -
Luis Rojas Universidad de Concepcion Aktif 92 / 93 40% 2 02.10.2026 -
Cristhofer Mesías Universidad de Concepcion Aktif 95 / 109 40% 1 30.09.2026 -
Juan Salas Patronato Aktif 113 / 117 40% 1 30.09.2026 -
Mariano Bracamonte Deportivo Riestra Aktif 113 / 116 40% 2 29.09.2026 -
Kyle Joseph Middlesbrough Aktif 104 / 113 40% 2 26.09.2026 -
Bojan Radulović Huddersfield Town Aktif 117 / 101 40% 1 25.09.2026 -
Luca Babino Huracán Aktif 115 / 113 40% 1 25.09.2026 -
Amadou Diawara Leganés Aktif 112 / 122 40% 1 25.09.2026 -
Carlos Rosel Grodig Aktif 92 / 98 40% 1 23.09.2026 -
Lautaro Mora Huracán Aktif 102 / 121 40% 1 23.09.2026 -
Lewis McCann Fleetwood Town Aktif 98 / 102 40% 1 21.09.2026 -
Lautaro Quiroga Defensa y Justicia Aktif 97 / 108 40% 1 21.09.2026 -
Alexei Dominguez Pachuca Aktif 101 / 96 40% 1 17.09.2026 -
Tomás Orqueida Mattersburg Aktif 108 / 96 40% 1 17.09.2026 -
David Barrero Nizhniy Novgorod Aktif 95 / 83 40% 1 16.09.2026 -
Duván Mósquera Aguilas Doradas Aktif 111 / 108 40% 1 16.09.2026 -
Facundo Pérez Juventud Aktif 96 / 105 40% 1 15.09.2026 -
Lander Astiazarán Real Sociedad Aktif 113 / 111 40% 1 15.09.2026 -
Galo Galarza Estudiantes Aktif 91 / 96 40% 1 15.09.2026 -
Juan Román Zarza BK Hacken Aktif 90 / 88 40% 1 14.09.2026 -
Maximo Ingravidi Colón Aktif 95 / 113 40% 1 13.09.2026 -
Bruno Hernández Cerro Largo Aktif 91 / 97 40% 1 11.09.2026 -
Alexis Dulón Huracán Aktif 87 / 91 40% 1 11.09.2026 -
Tomás Romero Unión de Santa Fe Aktif 91 / 101 40% 1 11.09.2026 -
Agustín Páez Maipú Aktif 100 / 92 40% 2 01.09.2026 -
Cristhian Medina Dinamo Brest Aktif 86 / 88 40% 1 01.09.2026 -
Marcos Camarda Santiago Wanderers Aktif 100 / 104 40% 4 31.08.2026 -
Agustín Zabaleta Chaco For Ever Aktif 95 / 88 40% 1 31.08.2026 -
Gonzalo Tapia Palestino Aktif 100 / 101 40% 1 31.08.2026 -
Agustín Fernández NK Zavrc Aktif 84 / 92 40% 1 30.08.2026 -
Richard Celis Zamora Aktif 100 / 117 40% 1 30.08.2026 -
Jandro Orellana Cádiz Aktif 118 / 104 40% 1 30.08.2026 -
Gonzalo Larrazábal Deportivo Maldonado Aktif 94 / 90 40% 1 28.08.2026 -
Gonzalo Aguirre Cienciano Aktif 93 / 96 40% 1 28.08.2026 -
Jeriel De Santis Caracas Aktif 99 / 95 40% 1 27.08.2026 -
Adalberto Peñaranda Deportivo Tachira Aktif 113 / 105 40% 2 26.08.2026 -
Martín Garnerone Estudiantes Aktif 120 / 110 40% 1 26.08.2026 -
Junior Paredes Trujillanos Aktif 92 / 107 40% 1 25.08.2026 -
Kavier Ortiz Metropolitanos Aktif 99 / 103 40% 1 25.08.2026 -
Francisco Galván Deportivo Municipal Aktif 103 / 99 40% 2 18.08.2026 -
Tadeo Polli San Martín Aktif 92 / 88 40% 1 18.08.2026 -
Tobías Bovone Deportivo Pereira Aktif 114 / 109 40% 1 16.08.2026 -
Gerónimo Tomasetti Temperley Aktif 112 / 115 40% 1 16.08.2026 -
Tomás Galván River Plate Aktif 118 / 115 40% 1 15.08.2026 -
Franco Sivetti Gimnasia y Tiro Aktif 113 / 102 40% 1 15.08.2026 -
Jules-Anthony Vilsaint Toronto FC Aktif 106 / 105 40% 1 12.08.2026 -
Ramiro Ruiz Rodríguez Atlético Tucumán Aktif 125 / 112 40% 1 11.08.2026 -
Bruno Gomes Valletta Aktif 85 / 108 40% 1 10.08.2026 -
Hakeeb Adelakun Doncaster Rovers Aktif 98 / 117 40% 1 10.08.2026 -
Joaquín Zappacosta Morón Aktif 86 / 87 40% 1 09.08.2026 -
Cristian Núñez Huracán Aktif 107 / 114 40% 1 06.08.2026 -
Jano Franco Independiente Rivadavia Aktif 92 / 82 40% 1 06.08.2026 -
Jeremy Rafanello Philadelphia Union Aktif 93 / 101 40% 1 05.08.2026 -
Alassana Jatta Notts County Aktif 105 / 119 40% 2 04.08.2026 -
Elías Ovelar Dinamo Brest Aktif 96 / 83 40% 1 04.08.2026 -
Martín Pino Godoy Cruz Aktif 114 / 106 40% 1 02.08.2026 -
Joe Abrigo Palestino Aktif 118 / 115 40% 1 02.08.2026 -
David Barbona Defensa y Justicia Aktif 120 / 113 40% 1 01.08.2026 -
Pablo Durán Celta Aktif 124 / 122 40% 1 01.08.2026 -